createdAt,value
2022-12-01T00:00:19.442Z,14.10
2022-12-01T00:03:11.538Z,12.60
2022-12-01T00:05:43.503Z,13.10
2022-12-01T00:08:15.379Z,11.80
2022-12-01T00:10:47.640Z,12.90
2022-12-01T00:13:19.680Z,13.80
2022-12-01T00:15:51.464Z,14.00
2022-12-01T00:18:23.227Z,13.20
2022-12-01T00:20:56.187Z,14.40
2022-12-01T00:23:27.967Z,13.40
2022-12-01T00:26:05.144Z,12.80
2022-12-01T00:28:36.902Z,13.50
2022-12-01T00:31:11.947Z,13.10
2022-12-01T00:33:43.791Z,13.20
2022-12-01T00:36:16.082Z,13.00
2022-12-01T00:38:48.009Z,13.90
2022-12-01T00:41:20.076Z,14.20
2022-12-01T00:43:51.975Z,13.80
2022-12-01T00:46:24.791Z,16.00
2022-12-01T00:48:56.813Z,14.00
2022-12-01T00:51:28.864Z,15.30
2022-12-01T00:54:00.617Z,15.30
2022-12-01T00:56:32.354Z,14.60
2022-12-01T00:59:04.705Z,14.90
2022-12-01T01:01:36.567Z,15.00
2022-12-01T01:04:08.671Z,15.10
2022-12-01T01:06:40.418Z,16.10
2022-12-01T01:09:13.047Z,16.00
2022-12-01T01:11:45.343Z,17.30
2022-12-01T01:14:17.150Z,16.70
2022-12-01T01:16:49.074Z,16.40
2022-12-01T01:19:20.846Z,15.30
2022-12-01T01:21:52.567Z,15.50
2022-12-01T01:24:24.304Z,15.00
2022-12-01T01:26:56.100Z,15.20
2022-12-01T01:29:28.466Z,16.00
2022-12-01T01:32:00.211Z,14.70
2022-12-01T01:34:32.159Z,15.30
2022-12-01T01:37:03.932Z,15.40
2022-12-01T01:39:35.849Z,14.80
2022-12-01T01:42:07.795Z,15.30
2022-12-01T01:44:56.675Z,14.60
2022-12-01T01:47:33.333Z,13.90
2022-12-01T01:50:09.320Z,13.80
2022-12-01T01:52:44.568Z,13.30
2022-12-01T01:55:16.869Z,12.70
2022-12-01T01:57:48.929Z,13.70
2022-12-01T02:00:22.944Z,13.50
2022-12-01T02:02:57.926Z,13.10
2022-12-01T02:05:34.013Z,14.20
2022-12-01T02:08:12.389Z,12.40
2022-12-01T02:13:34.945Z,12.40
2022-12-01T02:16:16.014Z,12.20
2022-12-01T02:18:56.439Z,12.30
2022-12-01T02:21:35.174Z,12.40
2022-12-01T02:24:26.979Z,11.90
2022-12-01T02:27:06.126Z,12.50
2022-12-01T02:29:57.401Z,13.90
2022-12-01T02:32:35.470Z,13.20
2022-12-01T02:35:16.327Z,14.30
2022-12-01T02:37:58.096Z,13.30
2022-12-01T02:40:35.961Z,12.90
2022-12-01T02:43:15.376Z,13.00
2022-12-01T02:45:53.102Z,12.20
2022-12-01T02:48:29.571Z,12.40
2022-12-01T02:51:05.571Z,13.70
2022-12-01T02:53:37.514Z,13.40
2022-12-01T02:56:13.475Z,13.50
2022-12-01T02:58:46.021Z,13.70
2022-12-01T03:01:32.417Z,13.80
2022-12-01T03:04:30.594Z,13.90
2022-12-01T03:09:47.986Z,13.20
2022-12-01T03:12:28.367Z,12.50
2022-12-01T03:15:08.138Z,12.30
2022-12-01T03:17:47.016Z,11.80
2022-12-01T03:20:26.279Z,12.90
2022-12-01T03:23:02.348Z,12.80
2022-12-01T03:25:35.321Z,13.20
2022-12-01T03:28:24.881Z,12.80
2022-12-01T03:31:00.614Z,13.70
2022-12-01T03:33:37.880Z,13.20
2022-12-01T03:36:15.294Z,13.20
2022-12-01T03:38:53.117Z,12.50
2022-12-01T03:41:29.326Z,12.20
2022-12-01T03:44:06.579Z,12.70
2022-12-01T03:46:48.809Z,13.20
2022-12-01T03:49:21.774Z,11.70
2022-12-01T03:52:03.317Z,13.30
2022-12-01T03:54:50.233Z,13.00
2022-12-01T03:57:26.876Z,12.00
2022-12-01T03:59:59.091Z,14.30
2022-12-01T04:02:31.089Z,13.70
2022-12-01T04:05:05.645Z,13.30
2022-12-01T04:07:37.846Z,13.30
2022-12-01T04:10:11.137Z,12.20
2022-12-01T04:12:43.121Z,12.80
2022-12-01T04:15:16.784Z,12.40
2022-12-01T04:17:49.063Z,10.90
2022-12-01T04:20:21.435Z,11.50
2022-12-01T04:22:53.307Z,12.50
2022-12-01T04:25:25.099Z,13.10
2022-12-01T04:27:57.116Z,13.30
2022-12-01T04:30:29.168Z,13.40
2022-12-01T04:33:01.046Z,12.70
2022-12-01T04:35:32.928Z,13.90
2022-12-01T04:38:04.786Z,13.40
2022-12-01T04:40:36.642Z,14.70
2022-12-01T04:43:08.578Z,12.70
2022-12-01T04:45:40.918Z,12.60
2022-12-01T04:48:13.127Z,12.40
2022-12-01T04:50:44.934Z,13.80
2022-12-01T04:53:17.003Z,13.10
2022-12-01T04:55:48.965Z,14.10
2022-12-01T04:58:21.041Z,14.00
2022-12-01T05:00:53.006Z,15.10
2022-12-01T05:03:24.987Z,14.30
2022-12-01T05:06:04.744Z,13.30
2022-12-01T05:08:36.686Z,13.50
2022-12-01T05:11:11.339Z,12.90
2022-12-01T05:13:44.900Z,12.90
2022-12-01T05:16:19.047Z,13.70
2022-12-01T05:19:20.244Z,13.90
2022-12-01T05:21:52.808Z,14.70
2022-12-01T05:24:24.844Z,15.50
2022-12-01T05:26:57.119Z,14.70
2022-12-01T05:29:29.137Z,13.60
2022-12-01T05:32:01.514Z,13.60
2022-12-01T05:34:33.462Z,13.20
2022-12-01T05:37:05.960Z,13.20
2022-12-01T05:39:37.779Z,14.10
2022-12-01T05:42:09.693Z,13.60
2022-12-01T05:44:41.453Z,14.80
2022-12-01T05:47:13.486Z,14.10
2022-12-01T05:49:45.488Z,15.10
2022-12-01T05:52:17.429Z,14.20
2022-12-01T05:54:49.518Z,14.20
2022-12-01T05:57:21.413Z,13.50
2022-12-01T05:59:53.146Z,13.60
2022-12-01T06:02:26.884Z,13.70
2022-12-01T06:04:58.932Z,12.50
2022-12-01T06:07:31.364Z,12.80
2022-12-01T06:10:04.031Z,13.20
2022-12-01T06:12:36.014Z,14.40
2022-12-01T06:15:11.750Z,13.70
2022-12-01T06:17:43.718Z,14.90
2022-12-01T06:20:15.963Z,14.70
2022-12-01T06:22:48.315Z,13.90
2022-12-01T06:25:20.451Z,13.80
2022-12-01T06:27:56.377Z,13.00
2022-12-01T06:30:28.381Z,13.30
2022-12-01T06:33:00.404Z,12.60
2022-12-01T06:35:32.461Z,13.10
2022-12-01T06:38:04.238Z,13.60
2022-12-01T06:40:36.404Z,13.20
2022-12-01T06:43:08.326Z,14.20
2022-12-01T06:45:40.398Z,14.10
2022-12-01T06:48:12.962Z,14.80
2022-12-01T06:50:46.135Z,13.80
2022-12-01T06:53:18.018Z,14.20
2022-12-01T06:55:50.046Z,13.60
2022-12-01T06:58:22.003Z,13.70
2022-12-01T07:00:54.741Z,13.20
2022-12-01T07:03:26.500Z,14.50
2022-12-01T07:06:02.936Z,15.10
2022-12-01T07:08:35.175Z,14.90
2022-12-01T07:11:09.062Z,15.60
2022-12-01T07:13:41.317Z,16.10
2022-12-01T07:16:13.989Z,15.00
2022-12-01T07:18:45.804Z,14.90
2022-12-01T07:21:18.531Z,14.80
2022-12-01T07:23:50.300Z,13.80
2022-12-01T07:26:22.530Z,14.20
2022-12-01T07:28:55.510Z,15.20
2022-12-01T07:31:27.300Z,15.00
2022-12-01T07:33:59.332Z,14.60
2022-12-01T07:36:31.240Z,15.10
2022-12-01T07:39:05.790Z,16.20
2022-12-01T07:41:38.102Z,14.10
2022-12-01T07:44:10.392Z,15.60
2022-12-01T07:46:42.400Z,15.00
2022-12-01T07:49:15.644Z,14.10
2022-12-01T07:51:48.119Z,14.00
2022-12-01T07:54:21.307Z,13.60
2022-12-01T07:56:53.260Z,16.20
2022-12-01T07:59:25.094Z,15.60
2022-12-01T08:01:57.013Z,15.70
2022-12-01T08:04:28.989Z,15.50
2022-12-01T08:07:00.850Z,15.60
2022-12-01T08:09:32.826Z,15.00
2022-12-01T08:12:04.675Z,14.90
2022-12-01T08:14:36.710Z,14.50
2022-12-01T08:17:09.140Z,15.40
2022-12-01T08:19:41.255Z,14.20
2022-12-01T08:22:12.994Z,14.10
2022-12-01T08:24:44.842Z,13.60
2022-12-01T08:27:16.648Z,15.00
2022-12-01T08:29:48.778Z,14.70
2022-12-01T08:32:21.213Z,15.50
2022-12-01T08:34:53.716Z,16.40
2022-12-01T08:37:26.010Z,16.50
2022-12-01T08:39:57.921Z,15.40
2022-12-01T08:42:29.825Z,14.50
2022-12-01T08:45:01.843Z,12.80
2022-12-01T08:47:33.661Z,13.80
2022-12-01T08:50:06.466Z,14.30
2022-12-01T08:52:38.894Z,14.10
2022-12-01T08:55:12.363Z,14.30
2022-12-01T08:57:44.285Z,14.00
2022-12-01T09:00:17.559Z,14.40
2022-12-01T09:02:49.664Z,15.40
2022-12-01T09:05:22.329Z,14.20
2022-12-01T09:08:20.644Z,14.20
2022-12-01T09:10:55.181Z,13.10
2022-12-01T09:13:28.394Z,14.50
2022-12-01T09:16:02.943Z,11.90
2022-12-01T09:18:35.433Z,12.80
2022-12-01T09:21:15.043Z,14.10
2022-12-01T09:23:47.043Z,13.70
2022-12-01T09:26:21.236Z,14.70
2022-12-01T09:28:56.597Z,14.20
2022-12-01T09:31:29.127Z,15.00
2022-12-01T09:34:03.044Z,14.20
2022-12-01T09:36:36.727Z,15.00
2022-12-01T09:39:13.134Z,13.70
2022-12-01T09:41:48.738Z,13.90
2022-12-01T09:44:40.988Z,14.70
2022-12-01T09:47:19.463Z,14.30
2022-12-01T09:50:00.738Z,15.40
2022-12-01T09:52:41.301Z,15.20
2022-12-01T09:55:17.431Z,16.60
2022-12-01T09:57:53.085Z,16.00
2022-12-01T10:00:27.699Z,16.80
2022-12-01T10:03:05.901Z,16.40
2022-12-01T10:06:10.431Z,15.20
2022-12-01T10:08:40.254Z,15.10
2022-12-01T10:11:19.657Z,16.00
2022-12-01T10:13:51.533Z,14.10
2022-12-01T10:16:28.933Z,15.70
2022-12-01T10:19:06.713Z,16.70
2022-12-01T10:21:54.864Z,15.80
2022-12-01T10:27:22.504Z,16.40
2022-12-01T10:30:04.058Z,16.10
2022-12-01T10:32:45.814Z,14.40
2022-12-01T10:35:20.716Z,15.50
2022-12-01T10:37:56.422Z,15.30
2022-12-01T10:40:29.785Z,15.60
2022-12-01T10:43:02.409Z,16.10
2022-12-01T10:45:45.703Z,16.80
2022-12-01T10:48:19.539Z,16.90
2022-12-01T10:50:53.924Z,17.40
2022-12-01T10:53:32.808Z,18.00
2022-12-01T10:56:10.983Z,16.50
2022-12-01T10:58:49.180Z,15.70
2022-12-01T11:01:26.521Z,16.00
2022-12-01T11:04:01.930Z,14.20
2022-12-01T11:06:34.130Z,14.50
2022-12-01T11:09:09.388Z,15.30
2022-12-01T11:11:42.841Z,15.50
2022-12-01T11:14:22.326Z,14.90
2022-12-01T11:16:55.214Z,16.70
2022-12-01T11:19:33.571Z,16.10
2022-12-01T11:22:23.884Z,14.80
2022-12-01T11:25:05.434Z,14.60
2022-12-01T11:27:46.484Z,14.90
2022-12-01T11:30:30.915Z,13.40
2022-12-01T11:33:05.492Z,13.90
2022-12-01T11:35:39.313Z,14.40
2022-12-01T11:38:30.755Z,13.60
2022-12-01T11:41:02.910Z,15.30
2022-12-01T11:43:38.428Z,15.80
2022-12-01T11:46:11.737Z,15.20
2022-12-01T11:48:58.222Z,14.40
2022-12-01T11:51:37.306Z,13.10
2022-12-01T11:54:16.011Z,14.30
2022-12-01T11:56:56.153Z,14.30
2022-12-01T11:59:36.375Z,15.30
2022-12-01T12:02:35.894Z,16.60
2022-12-01T12:05:39.685Z,15.20
2022-12-01T12:08:22.013Z,15.70
2022-12-01T12:11:03.371Z,16.10
2022-12-01T12:14:01.934Z,17.30
2022-12-01T12:16:46.287Z,15.60
2022-12-01T12:20:06.691Z,14.70
2022-12-01T12:22:50.873Z,15.00
2022-12-01T12:25:33.529Z,15.90
2022-12-01T12:28:23.913Z,15.60
2022-12-01T12:31:05.264Z,14.80
2022-12-01T12:34:01.583Z,15.80
2022-12-01T12:36:44.516Z,16.40
2022-12-01T12:39:31.844Z,16.20
2022-12-01T12:42:08.181Z,16.00
2022-12-01T12:44:50.560Z,16.00
2022-12-01T12:47:37.631Z,15.70
2022-12-01T12:50:24.700Z,17.10
2022-12-01T12:53:03.614Z,15.90
2022-12-01T12:55:41.167Z,16.50
2022-12-01T12:58:21.238Z,17.80
2022-12-01T13:00:59.922Z,17.40
2022-12-01T13:03:40.133Z,19.30
2022-12-01T13:06:19.437Z,20.30
2022-12-01T13:08:56.182Z,20.30
2022-12-01T13:11:33.173Z,20.10
2022-12-01T13:14:07.774Z,20.40
2022-12-01T13:16:42.443Z,20.30
2022-12-01T13:19:18.066Z,20.20
2022-12-01T13:21:52.940Z,17.80
2022-12-01T13:24:29.689Z,18.70
2022-12-01T13:27:04.695Z,18.20
2022-12-01T13:29:43.957Z,18.00
2022-12-01T13:32:31.538Z,17.30
2022-12-01T13:35:06.509Z,17.10
2022-12-01T13:37:39.832Z,17.70
2022-12-01T13:40:21.205Z,18.80
2022-12-01T13:43:08.586Z,18.50
2022-12-01T13:45:43.676Z,20.90
2022-12-01T13:48:30.256Z,19.20
2022-12-01T13:51:04.129Z,18.20
2022-12-01T13:53:37.969Z,18.10
2022-12-01T13:56:39.637Z,17.60
2022-12-01T13:59:41.078Z,16.70
2022-12-01T14:02:20.860Z,17.20
2022-12-01T14:04:52.793Z,16.60
2022-12-01T14:07:34.664Z,17.40
2022-12-01T14:10:27.118Z,18.10
2022-12-01T14:13:04.049Z,19.10
2022-12-01T14:15:42.436Z,19.60
2022-12-01T14:18:33.134Z,20.00
2022-12-01T14:21:07.941Z,20.30
2022-12-01T14:23:59.455Z,20.10
2022-12-01T14:26:32.537Z,20.90
2022-12-01T14:29:24.896Z,20.70
2022-12-01T14:32:23.777Z,21.10
2022-12-01T14:35:06.447Z,21.20
2022-12-01T14:37:45.232Z,24.90
2022-12-01T14:40:25.253Z,20.80
2022-12-01T14:43:18.506Z,22.60
2022-12-01T14:45:58.296Z,23.00
2022-12-01T14:48:38.490Z,20.10
2022-12-01T14:51:23.380Z,22.50
2022-12-01T14:53:58.189Z,21.20
2022-12-01T14:56:31.318Z,20.10
2022-12-01T14:59:14.804Z,22.30
2022-12-01T15:01:46.644Z,21.30
2022-12-01T15:04:19.078Z,19.60
2022-12-01T15:06:57.100Z,19.30
2022-12-01T15:09:34.117Z,21.50
2022-12-01T15:12:25.133Z,21.30
2022-12-01T15:14:56.931Z,20.40
2022-12-01T15:17:34.546Z,19.80
2022-12-01T15:20:27.572Z,19.40
2022-12-01T15:23:00.070Z,20.20
2022-12-01T15:25:35.692Z,19.60
2022-12-01T15:28:15.657Z,18.60
2022-12-01T15:30:50.707Z,19.80
2022-12-01T15:33:28.413Z,21.10
2022-12-01T15:36:03.934Z,21.60
2022-12-01T15:38:38.939Z,21.20
2022-12-01T15:41:29.158Z,22.80
2022-12-01T15:44:03.692Z,21.20
2022-12-01T15:46:36.521Z,20.90
2022-12-01T15:49:19.874Z,21.00
2022-12-01T15:51:53.034Z,21.40
2022-12-01T15:54:27.459Z,21.20
2022-12-01T15:57:01.041Z,20.50
2022-12-01T15:59:40.055Z,26.30
2022-12-01T16:02:27.938Z,23.90
2022-12-01T16:05:05.822Z,22.80
2022-12-01T16:08:11.439Z,22.30
2022-12-01T16:10:34.862Z,23.80
2022-12-01T16:13:46.829Z,22.70
2022-12-01T16:16:36.924Z,22.50
2022-12-01T16:19:26.488Z,20.80
2022-12-01T16:22:01.645Z,22.40
2022-12-01T16:24:36.672Z,22.40
2022-12-01T16:27:18.552Z,23.60
2022-12-01T16:29:53.291Z,19.10
2022-12-01T16:32:29.013Z,18.80
2022-12-01T16:35:01.153Z,16.20
2022-12-01T16:37:33.272Z,18.20
2022-12-01T16:40:08.266Z,20.00
2022-12-01T16:42:40.478Z,19.50
2022-12-01T16:45:15.102Z,17.60
2022-12-01T16:47:48.680Z,18.60
2022-12-01T16:50:23.028Z,18.30
2022-12-01T16:52:54.816Z,17.70
2022-12-01T16:55:33.175Z,19.80
2022-12-01T17:00:35.371Z,19.40
2022-12-01T17:03:07.953Z,20.40
2022-12-01T17:05:40.460Z,23.20
2022-12-01T17:08:14.492Z,19.30
2022-12-01T17:10:49.578Z,18.90
2022-12-01T17:13:24.141Z,17.90
2022-12-01T17:15:56.943Z,19.00
2022-12-01T17:18:28.742Z,17.00
2022-12-01T17:21:02.431Z,16.40
2022-12-01T17:23:34.698Z,16.40
2022-12-01T17:26:10.077Z,18.80
2022-12-01T17:28:42.650Z,18.30
2022-12-01T17:31:14.859Z,18.80
2022-12-01T17:33:46.693Z,18.60
2022-12-01T17:36:18.778Z,18.50
2022-12-01T17:38:51.049Z,15.50
2022-12-01T17:41:25.613Z,15.70
2022-12-01T17:43:57.501Z,15.60
2022-12-01T17:46:30.217Z,16.50
2022-12-01T17:49:08.704Z,15.90
2022-12-01T17:51:40.978Z,15.80
2022-12-01T17:54:13.177Z,16.50
2022-12-01T17:56:45.892Z,16.10
2022-12-01T17:59:18.857Z,17.20
2022-12-01T18:01:50.619Z,14.50
2022-12-01T18:04:22.456Z,14.10
2022-12-01T18:06:54.758Z,14.10
2022-12-01T18:09:26.614Z,14.20
2022-12-01T18:11:58.680Z,14.60
2022-12-01T18:14:30.603Z,15.10
2022-12-01T18:17:02.522Z,14.10
2022-12-01T18:19:34.348Z,14.80
2022-12-01T18:22:06.220Z,14.60
2022-12-01T18:24:38.127Z,16.00
2022-12-01T18:27:10.108Z,15.70
2022-12-01T18:29:42.246Z,14.50
2022-12-01T18:32:13.971Z,13.30
2022-12-01T18:34:46.142Z,13.90
2022-12-01T18:37:18.275Z,13.00
2022-12-01T18:39:50.240Z,13.50
2022-12-01T18:42:22.033Z,13.20
2022-12-01T18:44:53.794Z,13.60
2022-12-01T18:47:25.560Z,13.10
2022-12-01T18:49:57.470Z,13.90
2022-12-01T18:52:29.260Z,13.00
2022-12-01T18:55:01.088Z,16.60
2022-12-01T18:57:33.012Z,14.70
2022-12-01T19:00:06.165Z,13.20
2022-12-01T19:02:38.006Z,11.90
2022-12-01T19:05:11.223Z,13.40
2022-12-01T19:07:43.027Z,13.80
2022-12-01T19:10:15.183Z,13.50
2022-12-01T19:12:47.005Z,14.00
2022-12-01T19:15:18.871Z,15.00
2022-12-01T19:17:51.357Z,14.80
2022-12-01T19:20:23.397Z,14.30
2022-12-01T19:22:55.190Z,15.60
2022-12-01T19:25:27.078Z,13.30
2022-12-01T19:27:59.047Z,13.20
2022-12-01T19:30:31.053Z,11.80
2022-12-01T19:33:03.079Z,11.70
2022-12-01T19:35:35.119Z,11.80
2022-12-01T19:38:06.890Z,11.90
2022-12-01T19:40:42.176Z,12.50
2022-12-01T19:43:14.516Z,13.80
2022-12-01T19:45:46.479Z,12.80
2022-12-01T19:48:18.393Z,12.70
2022-12-01T19:50:50.189Z,13.30
2022-12-01T19:53:21.994Z,15.30
2022-12-01T19:55:54.352Z,15.50
2022-12-01T19:58:26.590Z,13.60
2022-12-01T20:01:05.529Z,13.90
2022-12-01T20:03:37.868Z,14.80
2022-12-01T20:06:12.741Z,13.20
2022-12-01T20:08:46.782Z,12.90
2022-12-01T20:11:19.026Z,13.20
2022-12-01T20:13:51.548Z,13.80
2022-12-01T20:16:25.310Z,13.80
2022-12-01T20:18:57.494Z,14.50
2022-12-01T20:21:32.952Z,14.50
2022-12-01T20:24:07.333Z,14.80
2022-12-01T20:26:42.293Z,14.00
2022-12-01T20:29:17.644Z,14.10
2022-12-01T20:31:52.911Z,13.60
2022-12-01T20:34:27.813Z,14.20
2022-12-01T20:37:00.439Z,13.80
2022-12-01T20:39:34.741Z,14.90
2022-12-01T20:42:06.795Z,16.20
2022-12-01T20:44:40.317Z,15.50
2022-12-01T20:47:14.770Z,14.30
2022-12-01T20:49:46.589Z,13.90
2022-12-01T20:52:18.384Z,14.60
2022-12-01T20:54:50.443Z,14.30
2022-12-01T20:57:22.530Z,12.20
2022-12-01T20:59:54.721Z,12.30
2022-12-01T21:02:26.650Z,11.90
2022-12-01T21:04:59.325Z,12.10
2022-12-01T21:07:31.426Z,12.70
2022-12-01T21:10:05.217Z,12.00
2022-12-01T21:12:57.014Z,12.20
2022-12-01T21:15:31.312Z,12.30
2022-12-01T21:18:09.553Z,13.20
2022-12-01T21:20:44.471Z,13.10
2022-12-01T21:23:18.099Z,12.70
2022-12-01T21:25:51.695Z,11.80
2022-12-01T21:28:26.693Z,10.70
2022-12-01T21:31:13.950Z,11.70
2022-12-01T21:33:46.269Z,9.70
2022-12-01T21:36:20.354Z,10.80
2022-12-01T21:38:56.200Z,10.20
2022-12-01T21:41:30.017Z,10.90
2022-12-01T21:44:17.352Z,10.50
2022-12-01T21:46:51.297Z,9.60
2022-12-01T21:49:32.008Z,10.50
2022-12-01T21:52:08.146Z,11.50
2022-12-01T21:54:39.925Z,11.50
2022-12-01T21:57:30.293Z,10.70
2022-12-01T22:00:25.633Z,10.80
2022-12-01T22:03:33.942Z,10.10
2022-12-01T22:06:31.996Z,10.50
2022-12-01T22:11:35.470Z,9.00
2022-12-01T22:14:16.480Z,9.30
2022-12-01T22:16:54.112Z,10.60
2022-12-01T22:19:32.083Z,9.70
2022-12-01T22:22:16.687Z,10.10
2022-12-01T22:24:50.261Z,9.90
2022-12-01T22:27:34.008Z,9.20
2022-12-01T22:30:19.529Z,10.10
2022-12-01T22:32:56.946Z,9.20
2022-12-01T22:35:37.623Z,9.50
2022-12-01T22:38:36.229Z,9.70
2022-12-01T22:41:12.136Z,9.30
2022-12-01T22:43:51.807Z,10.00
2022-12-01T22:46:30.548Z,9.80
2022-12-01T22:49:13.745Z,10.60
2022-12-01T22:51:49.887Z,10.80
2022-12-01T22:54:33.579Z,11.40
2022-12-01T22:57:33.267Z,10.40
2022-12-01T23:00:17.154Z,9.80
2022-12-01T23:02:50.856Z,9.70
2022-12-01T23:05:27.076Z,9.20
2022-12-01T23:07:59.121Z,9.80
2022-12-01T23:10:35.345Z,9.60
2022-12-01T23:13:20.201Z,9.90
2022-12-01T23:15:54.283Z,11.30
2022-12-01T23:18:29.141Z,9.70
2022-12-01T23:21:01.992Z,10.70
2022-12-01T23:23:35.698Z,8.90
2022-12-01T23:26:09.780Z,9.20
2022-12-01T23:28:42.027Z,8.70
2022-12-01T23:31:13.884Z,9.00
2022-12-01T23:33:45.748Z,8.60
2022-12-01T23:36:20.019Z,10.20
2022-12-01T23:38:54.125Z,9.40
2022-12-01T23:41:35.862Z,9.40
2022-12-01T23:44:19.889Z,10.30
2022-12-01T23:46:53.887Z,9.80
2022-12-01T23:49:30.390Z,9.70
2022-12-01T23:52:03.847Z,9.20
2022-12-01T23:54:38.882Z,8.60
2022-12-01T23:57:19.593Z,8.00
2022-12-01T23:59:55.962Z,9.20
